Springfield, OH (45502)

4:24 PM EST on December 08, 2016 (GMT -0500)
Werner Ent. Springfield, OH | | Change Station

Elev 1048 ft 39.90 °N, 83.73 °W | Updated 3 minutes ago

Overcast
Overcast
24.5 °F
Feels Like 12 °F
N
14.0
Wind Variable Wind from North
Gusts 21.0 mph

Today
High -- | Low -- °F
--% Chance of Precip.
Yesterday
High -- | Low -- °F
Precip. -- in
Pressure 30.33 in
Visibility 9.0 miles
Clouds Overcast 2500 ft
Windchill 12 °F
Dew Point 17 °F
Humidity 73%
Rainfall 0.00 in
Snow Depth Not available.
7:44 AM 5:09 PM
Waxing Gibbous, 67% visible
METAR KSGH 082056Z AUTO 27014KT 9SM -SN OVC025 M04/M09 A3028 RMK AO2 SLP269 P0000 60000 T10441089 53015
Pressure 30.33 in
Visibility 9.0 miles
Clouds Overcast 2500 ft
Windchill 12 °F
Dew Point 17 °F
Humidity 73%
Rainfall 0.00 in
Snow Depth Not available.
7:44 AM 5:09 PM
Waxing Gibbous, 67% visible
METAR KSGH 082056Z AUTO 27014KT 9SM -SN OVC025 M04/M09 A3028 RMK AO2 SLP269 P0000 60000 T10441089 53015

10-Day Weather Forecast

Almanac

Astronomy

Dec. 08, 2016 Rise Set
Actual Time
Civil Twilight
Nautical Twilight
Astronomical Twilight
Moon
Length of Visible Light
Length of Day
Tomorrow will be .
, % of the Moon is Illuminated

Today's Extremes

State Highs State Lows

Community

WunderPhotos

Upload Photos

1,956,277 photos uploaded!

WunderBlog® & News

Nearby

Air Quality

  Air Quality AQ Index Pollutant
Not available.

Snow Depth

Station Depth Elevation

Earthquake Activity

City Distance Mag. Time & Date
Minimum magnitude displayed is 2.5.

Coastal Water Temperatures

Place Temperature

Stations

Nearby Weather Stations

Station Location Temp. Windchill Dew Point Humidity Wind Precip. Elev Updated Type
                   

Watches & Warnings

There are currently no watches in effect.